Moanda, Gabon
Current Conditions -  °F | °C
As of 10:00 PM on Saturday 20 Dec 2014 (Local Time) from FCPD Reporting Station
Few Clouds Few Clouds  
Wind Chill: 77°   Ceiling: Unl
Heat Index: 78°   Visibility: 6mi
Dew Point: 73°   Wind: 7mph
Humidity: 89%   Direction: 60°ENE
Pressure: 29.94"   Gusts: NA
Location:  1.56°S, 13.22°E
Report Text: FCPD 202100Z 06006KT 9999 FEW020 25/23 Q1014
Loading
Personal Weather Stations






























Interactive Weather Map New forecast layout! Learn more

10-Day Weather Forecast

Advertisements
Track Severe Weather on mobile